Flight Track Log - Related Links

Times and Time Zones

All times are in EDT time to prevent confusion due to time zone crossing. See the TAM3219 flight status page for this flight to view local times or setup timezone preferences in your user account.

Time Position Orientation Groundspeed Altitude Reporting Facility
EDT Latitude Longitude Course Direction KTS MPH feet Rate Location/Type
03:27PM -19.6460 -43.9570 317° Northwest 169 194 3,200  Level FlightAware
03:27PM -19.6590 -43.9500 153° Southeast 177 204 4,000 3,220 Climbing FlightAware
03:28PM -19.6790 -43.9420 159° South 170 196 5,400 3,257 Climbing FlightAware
03:28PM -19.6830 -43.9350 121° Southeast 166 191 5,900 2,800 Climbing FlightAware
03:28PM -19.6840 -43.9310 105° East 166 191 6,100 2,640 Climbing FlightAware
03:28PM -19.6780 -43.9160 67° East 171 197 7,000 2,600 Climbing FlightAware
03:29PM -19.6730 -43.9120 37° Northeast 176 203 7,400 2,400 Climbing FlightAware
03:29PM -19.6680 -43.9120 360° North 178 205 7,600 2,640 Climbing FlightAware
03:29PM -19.6530 -43.9120 360° North 181 208 8,500 2,250 Climbing FlightAware
03:29PM -19.6350 -43.9130 357° North 203 234 9,100 1,543 Climbing FlightAware
03:30PM -19.6200 -43.9180 343° North 229 264 9,400 1,200 Climbing FlightAware
03:30PM -19.6150 -43.9220 323° Northwest 240 276 9,500 1,200 Climbing FlightAware
03:30PM -19.6100 -43.9290 307° West 252 290 9,700 1,500 Climbing FlightAware
03:30PM -19.6080 -43.9430 279° West 261 300 10,000 2,400 Climbing FlightAware
03:30PM -19.6180 -43.9690 248° West 284 327 10,900 2,291 Climbing FlightAware
03:31PM -19.6470 -44.0080 232° Southwest 329 379 12,100 1,754 Climbing FlightAware
03:31PM -19.6770 -44.0490 232° Southwest 368 423 12,800 1,452 Climbing FlightAware
03:32PM -19.7110 -44.0970 233° Southwest 399 459 13,600 2,314 Climbing FlightAware
03:33PM -19.7560 -44.1590 232° Southwest 408 470 15,500 2,354 Climbing FlightAware
03:33PM -19.8040 -44.2260 233° Southwest 432 497 16,700 1,926 Climbing FlightAware
03:34PM -19.8520 -44.2920 232° Southwest 446 513 18,100 2,250 Climbing FlightAware
03:35PM -19.9010 -44.3610 233° Southwest 449 517 19,700 2,270 Climbing FlightAware
03:35PM -19.9440 -44.4220 233° Southwest 458 527 20,900 2,044 Climbing FlightAware
03:36PM -20.0200 -44.5270 232° Southwest 464 534 22,800 1,696 Climbing FlightAware
03:37PM -20.0660 -44.5920 233° Southwest 474 545 23,500 1,268 Climbing FlightAware
03:37PM -20.1130 -44.6570 232° Southwest 480 552 24,300 1,477 Climbing FlightAware
03:38PM -20.1560 -44.7170 233° Southwest 483 556 25,100 1,543 Climbing FlightAware
03:38PM -20.2100 -44.7940 233° Southwest 482 555 26,100 1,500 Climbing FlightAware
03:39PM -20.2530 -44.8540 233° Southwest 481 554 27,000 1,853 Climbing FlightAware
03:40PM -20.2990 -44.9180 233° Southwest 479 551 28,200 3,529 Climbing FlightAware
03:40PM -20.3430 -44.9790 232° Southwest 436 502 31,000 3,081 Climbing FlightAware
03:41PM -20.3860 -45.0410 233° Southwest 399 459 32,000 706 Climbing FlightAware
03:42PM -20.4360 -45.1120 233° Southwest 410 472 32,000  Level FlightAware
03:42PM -20.4700 -45.1590 232° Southwest 412 474 32,000 -237 Level FlightAware
03:43PM -20.5150 -45.2240 234° Southwest 421 484 31,700 -450 Descending FlightAware
03:43PM -20.5590 -45.2860 233° Southwest 420 483 31,400 -675 Descending FlightAware
03:44PM -20.6060 -45.3530 233° Southwest 416 479 30,800 -1,050 Descending FlightAware
03:45PM -20.6640 -45.4350 233° Southwest 428 493 30,000 -676 Descending FlightAware
03:45PM -20.7000 -45.4860 233° Southwest 437 503 30,000  Level FlightAware
03:46PM -20.7570 -45.5670 233° Southwest 446 513 30,000  Level FlightAware
03:47PM -20.8010 -45.6290 233° Southwest 422 486 30,000  Level FlightAware
03:47PM -20.8380 -45.6820 233° Southwest 415 478 30,000  Level FlightAware
03:48PM -20.8820 -45.7460 234° Southwest 426 490 30,000 -560 Level FlightAware
03:49PM -20.9260 -45.8090 233° Southwest 429 494 29,300 -720 Descending FlightAware
03:49PM -20.9620 -45.8600 233° Southwest 431 496 29,100 -164 Descending FlightAware
03:50PM -20.9990 -45.9120 233° Southwest 431 496 29,100 -943 Level FlightAware
03:50PM -21.0630 -46.0050 234° Southwest 474 545 28,000 -880 Descending FlightAware
03:51PM -21.1190 -46.0850 233° Southwest 474 545 28,000  Level FlightAware
03:52PM -21.1600 -46.1450 234° Southwest 471 542 28,000  Level FlightAware
03:52PM -21.2140 -46.2210 233° Southwest 473 544 28,000  Level FlightAware
03:53PM -21.2500 -46.2740 234° Southwest 473 544 28,000  Level FlightAware
03:54PM -21.3090 -46.3580 233° Southwest 478 550 28,000  Level FlightAware
03:54PM -21.3470 -46.4130 233° Southwest 478 550 28,000  Level FlightAware
03:55PM -21.3900 -46.4760 234° Southwest 477 549 28,000  Level FlightAware
03:55PM -21.4570 -46.5730 233° Southwest 478 550 28,000  Level FlightAware
03:56PM -21.5040 -46.6420 234° Southwest 477 549 28,000  Level FlightAware
03:56PM -21.5490 -46.7080 234° Southwest 475 547 28,000  Level FlightAware
03:57PM -21.5960 -46.7750 233° Southwest 475 547 28,000  Level FlightAware
03:58PM -21.6400 -46.8400 234° Southwest 475 547 28,000  Level FlightAware
03:58PM -21.6890 -46.9110 233° Southwest 473 544 28,000  Level FlightAware
03:59PM -21.7310 -46.9730 234° Southwest 475 547 28,000  Level FlightAware
03:59PM -21.7790 -47.0420 233° Southwest 477 549 28,000  Level FlightAware
04:00PM -21.8260 -47.1110 234° Southwest 478 550 28,000  Level FlightAware
04:00PM -21.8700 -47.1760 234° Southwest 477 549 28,000  Level FlightAware
04:01PM -21.9140 -47.2400 233° Southwest 477 549 28,000  Level FlightAware
04:02PM -21.9640 -47.3130 234° Southwest 476 548 28,000  Level FlightAware
04:02PM -21.9950 -47.3450 224° Southwest 475 547 28,000  Level FlightAware
04:02PM -22.0260 -47.3650 211° Southwest 474 545 28,000  Level FlightAware
04:03PM -22.0910 -47.3970 205° Southwest 474 545 28,000  Level FlightAware
04:03PM -22.1620 -47.4320 205° Southwest 475 547 28,000  Level FlightAware
04:04PM -22.2330 -47.4690 206° Southwest 474 545 28,000  Level FlightAware
04:05PM -22.2960 -47.5000 204° Southwest 474 545 28,000  Level FlightAware
04:05PM -22.3690 -47.5360 205° Southwest 475 547 28,000  Level FlightAware
04:06PM -22.4450 -47.5540 192° South 475 547 28,000 -493 Level FlightAware
04:06PM -22.5240 -47.5550 181° South 469 540 27,400 -2,000 Descending FlightAware
04:07PM -22.5900 -47.5570 182° South 453 521 25,800 -2,954 Descending FlightAware
04:07PM -22.6610 -47.5590 181° South 432 497 24,200 -3,086 Descending FlightAware
04:08PM -22.7350 -47.5610 181° South 449 517 22,200 -3,150 Descending FlightAware
04:09PM -22.8240 -47.5390 167° South 452 520 20,000 -2,775 Descending FlightAware
04:09PM -22.8810 -47.4940 144° Southeast 428 493 18,500 -3,138 Descending FlightAware
04:10PM -22.9240 -47.4530 139° Southeast 429 494 16,600 -2,629 Descending FlightAware
04:11PM -23.0110 -47.3710 139° Southeast 400 460 14,600 -1,630 Descending FlightAware
04:11PM -23.0580 -47.3260 139° Southeast 360 414 14,100 -882 Descending FlightAware
04:12PM -23.1000 -47.2870 140° Southeast 330 380 13,600 -700 Descending FlightAware
04:12PM -23.1360 -47.2780 167° South 309 356 13,400 -536 Descending FlightAware
04:13PM -23.1780 -47.2760 177° South 286 329 13,100 -353 Descending FlightAware
04:14PM -23.2220 -47.2660 168° South 264 304 13,000 -113 Descending FlightAware
04:14PM -23.2330 -47.2540 135° Southeast 269 310 13,000  Level FlightAware
04:14PM -23.2440 -47.2240 112° Southeast 269 310 13,000 -414 Level FlightAware
04:15PM -23.2580 -47.1740 107° East 283 326 12,600 -1,029 Descending FlightAware
04:15PM -23.2730 -47.1290 110° East 284 327 11,800 -1,412 Descending FlightAware
04:16PM -23.2960 -47.0870 121° Southeast 285 328 11,000 -1,333 Descending FlightAware
04:16PM -23.3210 -47.0420 121° Southeast 280 322 10,200 -1,286 Descending FlightAware
04:17PM -23.3340 -47.0190 122° Southeast 275 316 9,800 -1,350 Descending FlightAware
04:17PM -23.3480 -46.9940 121° Southeast 275 316 9,300 -1,636 Descending FlightAware
04:18PM -23.3640 -46.9660 122° Southeast 277 319 8,600 -1,500 Descending FlightAware
04:18PM -23.3760 -46.9440 121° Southeast 265 305 8,200 -1,650 Descending FlightAware
04:18PM -23.3890 -46.9210 122° Southeast 262 302 7,500 -2,211 Descending FlightAware
04:19PM -23.4010 -46.8990 121° Southeast 261 300 6,800 -1,773 Descending FlightAware
04:19PM -23.4150 -46.8720 119° Southeast 255 293 6,200 -1,304 Descending FlightAware
04:19PM -23.4290 -46.8480 122° Southeast 251 289 5,800 -789 Descending FlightAware
04:20PM -23.4390 -46.8300 121° Southeast 239 275 5,700 -150 Descending FlightAware
04:20PM -23.4510 -46.8090 122° Southeast 219 252 5,700 -130 Level FlightAware
04:20PM -23.4630 -46.7870 121° Southeast 203 234 5,600 -136 Descending FlightAware
04:21PM -23.4730 -46.7700 123° Southeast 197 227 5,600 -182 Level FlightAware
04:21PM -23.4790 -46.7600 123° Southeast 196 226 5,500 -900 Descending FlightAware
04:21PM -23.4850 -46.7550 143° Southeast 196 226 5,300 -1,111 Descending FlightAware
04:21PM -23.4990 -46.7450 147° Southeast 190 219 5,000 -1,000 Descending FlightAware
04:22PM -23.5160 -46.7330 147° Southeast 178 205 4,600 -857 Descending FlightAware
04:22PM -23.5280 -46.7240 145° Southeast 163 188 4,400 -750 Descending FlightAware
04:22PM -23.5410 -46.7160 151° Southeast 147 169 4,100 -682 Descending FlightAware
04:23PM -23.5530 -46.7070 145° Southeast 121 139 3,900 -571 Descending FlightAware
04:23PM -23.5620 -46.7010 149° Southeast 112 129 3,700 -585 Descending FlightAware
04:23PM -23.5720 -46.6950 151° Southeast 114 131 3,500 -571 Descending FlightAware
04:24PM -23.5810 -46.6880 145° Southeast 116 133 3,300 -615 Descending FlightAware
04:24PM -23.5890 -46.6820 145° Southeast 112 129 3,100 -632 Descending FlightAware
04:24PM -23.5970 -46.6770 150° Southeast 116 133 2,900 -632 Descending FlightAware
04:25PM -23.6060 -46.6700 145° Southeast 113 130 2,700 -375 Descending FlightAware
04:25PM -23.6140 -46.6660 155° Southeast 113 130 2,600 -429 Descending FlightAware
04:26PM -23.6250 -46.6580 146° Southeast 114 131 2,300  Descending FlightAware
04:26PM -23.6260 -46.6570 138° Southeast 114 131 367 Descending FlightAware
04:26PM -23.6190 -46.6460 55° Northeast 114 131 3,545 Level FlightAware
04:27PM -23.6310 -46.6550 214° Southwest 150 173 2,600 9,750 Climbing FlightAware

Login

Don't have an account? Register now (free) for customized features, flight alerts, and more!